createdAt,value
2019-02-17T00:00:07.539Z,7.76
2019-02-17T00:02:43.238Z,7.80
2019-02-17T00:05:15.041Z,7.75
2019-02-17T00:07:48.416Z,7.73
2019-02-17T00:10:20.277Z,7.65
2019-02-17T00:12:52.466Z,7.67
2019-02-17T00:15:25.795Z,7.67
2019-02-17T00:18:03.935Z,7.69
2019-02-17T00:20:36.112Z,7.69
2019-02-17T00:23:08.052Z,7.64
2019-02-17T00:25:39.841Z,7.59
2019-02-17T00:28:11.877Z,7.61
2019-02-17T00:30:43.655Z,7.57
2019-02-17T00:33:16.080Z,7.50
2019-02-17T00:35:49.688Z,7.52
2019-02-17T00:38:21.552Z,7.52
2019-02-17T00:40:53.428Z,7.51
2019-02-17T00:43:25.480Z,7.55
2019-02-17T00:45:58.022Z,7.51
2019-02-17T00:48:29.877Z,7.50
2019-02-17T00:51:02.679Z,7.66
2019-02-17T00:53:34.527Z,7.57
2019-02-17T00:56:06.402Z,7.49
2019-02-17T00:58:38.324Z,7.41
2019-02-17T01:01:10.131Z,7.46
2019-02-17T01:03:41.977Z,7.24
2019-02-17T01:06:14.186Z,7.21
2019-02-17T01:08:46.039Z,7.11
2019-02-17T01:11:18.964Z,7.04
2019-02-17T01:13:50.759Z,7.04
2019-02-17T01:16:24.942Z,7.09
2019-02-17T01:18:57.751Z,7.14
2019-02-17T01:21:29.611Z,7.23
2019-02-17T01:24:01.858Z,7.33
2019-02-17T01:26:33.746Z,7.40
2019-02-17T01:29:07.296Z,7.43
2019-02-17T01:31:39.176Z,7.49
2019-02-17T01:34:12.004Z,7.53
2019-02-17T01:36:43.789Z,7.53
2019-02-17T01:39:15.725Z,7.52
2019-02-17T01:41:47.517Z,7.40
2019-02-17T01:44:19.400Z,7.27
2019-02-17T01:46:51.220Z,7.22
2019-02-17T01:49:24.833Z,7.13
2019-02-17T01:51:56.647Z,7.05
2019-02-17T01:54:28.548Z,7.06
2019-02-17T01:57:00.336Z,7.04
2019-02-17T01:59:32.397Z,7.12
2019-02-17T02:02:06.249Z,7.20
2019-02-17T02:04:38.099Z,7.29
2019-02-17T02:07:09.911Z,7.30
2019-02-17T02:09:41.777Z,7.39
2019-02-17T02:12:13.624Z,7.34
2019-02-17T02:14:45.463Z,7.19
2019-02-17T02:17:17.255Z,7.29
2019-02-17T02:19:50.214Z,7.17
2019-02-17T02:22:22.071Z,7.06
2019-02-17T02:24:54.012Z,6.96
2019-02-17T02:27:25.977Z,6.88
2019-02-17T02:29:59.437Z,6.83
2019-02-17T02:32:33.023Z,6.81
2019-02-17T02:35:05.510Z,6.84
2019-02-17T02:37:37.375Z,6.89
2019-02-17T02:40:09.697Z,6.99
2019-02-17T02:42:41.707Z,7.11
2019-02-17T02:45:13.946Z,7.19
2019-02-17T02:47:45.772Z,7.25
2019-02-17T02:50:17.710Z,7.26
2019-02-17T02:52:51.413Z,7.30
2019-02-17T02:55:23.204Z,7.32
2019-02-17T02:57:55.122Z,7.19
2019-02-17T03:00:26.933Z,7.11
2019-02-17T03:02:58.806Z,7.16
2019-02-17T03:05:30.734Z,7.02
2019-02-17T03:08:02.528Z,6.90
2019-02-17T03:10:34.399Z,6.94
2019-02-17T03:13:06.306Z,6.91
2019-02-17T03:15:42.607Z,6.85
2019-02-17T03:18:14.460Z,6.83
2019-02-17T03:20:46.314Z,6.77
2019-02-17T03:23:18.243Z,6.75
2019-02-17T03:25:50.112Z,6.64
2019-02-17T03:28:21.901Z,6.59
2019-02-17T03:30:53.691Z,6.58
2019-02-17T03:33:25.549Z,6.63
2019-02-17T03:35:57.420Z,6.66
2019-02-17T03:38:30.847Z,6.74
2019-02-17T03:41:02.672Z,6.84
2019-02-17T03:43:34.581Z,6.97
2019-02-17T03:46:06.467Z,7.02
2019-02-17T03:48:38.665Z,7.05
2019-02-17T03:51:12.253Z,7.11
2019-02-17T03:53:44.135Z,7.09
2019-02-17T03:56:17.822Z,7.19
2019-02-17T03:58:49.667Z,7.17
2019-02-17T04:01:21.850Z,7.13
2019-02-17T04:03:53.723Z,7.12
2019-02-17T04:06:25.806Z,7.19
2019-02-17T04:08:58.341Z,7.15
2019-02-17T04:11:30.154Z,7.12
2019-02-17T04:14:02.070Z,7.10
2019-02-17T04:16:33.996Z,7.15
2019-02-17T04:19:05.826Z,7.16
2019-02-17T04:21:37.867Z,7.14
2019-02-17T04:24:10.381Z,6.99
2019-02-17T04:26:42.313Z,6.82
2019-02-17T04:29:17.533Z,6.76
2019-02-17T04:31:49.433Z,6.66
2019-02-17T04:34:21.251Z,6.53
2019-02-17T04:36:53.086Z,6.45
2019-02-17T04:39:24.881Z,6.38
2019-02-17T04:41:58.353Z,6.35
2019-02-17T04:44:30.153Z,6.31
2019-02-17T04:47:02.095Z,6.36
2019-02-17T04:49:33.947Z,6.43
2019-02-17T04:52:05.767Z,6.48
2019-02-17T04:54:38.003Z,6.48
2019-02-17T04:57:10.043Z,6.55
2019-02-17T04:59:41.950Z,6.53
2019-02-17T05:02:13.982Z,6.61
2019-02-17T05:04:45.842Z,6.54
2019-02-17T05:07:17.647Z,6.52
2019-02-17T05:09:49.901Z,6.51
2019-02-17T05:12:21.713Z,6.47
2019-02-17T05:14:53.557Z,6.32
2019-02-17T05:17:25.512Z,6.35
2019-02-17T05:19:57.346Z,6.35
2019-02-17T05:22:29.143Z,6.28
2019-02-17T05:25:01.031Z,6.22
2019-02-17T05:27:33.267Z,6.17
2019-02-17T05:30:06.068Z,6.11
2019-02-17T05:32:37.910Z,6.01
2019-02-17T05:35:10.008Z,6.01
2019-02-17T05:37:42.200Z,6.02
2019-02-17T05:40:14.142Z,5.93
2019-02-17T05:42:45.942Z,5.90
2019-02-17T05:45:17.783Z,5.81
2019-02-17T05:47:49.599Z,5.83
2019-02-17T05:50:21.454Z,5.90
2019-02-17T05:52:53.262Z,5.93
2019-02-17T05:55:25.112Z,5.97
2019-02-17T05:57:57.355Z,5.97
2019-02-17T06:00:32.747Z,6.04
2019-02-17T06:03:04.575Z,6.00
2019-02-17T06:05:36.431Z,5.89
2019-02-17T06:08:08.804Z,5.89
2019-02-17T06:10:42.888Z,5.88
2019-02-17T06:13:16.490Z,5.82
2019-02-17T06:15:48.363Z,5.85
2019-02-17T06:18:20.262Z,5.90
2019-02-17T06:20:52.101Z,5.88
2019-02-17T06:23:24.402Z,5.89
2019-02-17T06:25:56.211Z,5.97
2019-02-17T06:28:28.061Z,5.96
2019-02-17T06:30:59.893Z,6.00
2019-02-17T06:33:31.708Z,5.92
2019-02-17T06:36:03.531Z,5.75
2019-02-17T06:38:35.756Z,5.70
2019-02-17T06:41:07.596Z,5.65
2019-02-17T06:43:39.435Z,5.59
2019-02-17T06:46:13.191Z,5.54
2019-02-17T06:48:45.109Z,5.54
2019-02-17T06:51:16.957Z,5.55
2019-02-17T06:53:48.831Z,5.57
2019-02-17T06:56:38.078Z,5.61
2019-02-17T06:59:10.609Z,5.64
2019-02-17T07:01:44.448Z,5.68
2019-02-17T07:04:16.273Z,5.76
2019-02-17T07:06:53.292Z,5.77
2019-02-17T07:09:25.151Z,5.76
2019-02-17T07:11:57.073Z,5.79
2019-02-17T07:14:28.972Z,5.70
2019-02-17T07:17:00.848Z,5.72
2019-02-17T07:19:33.074Z,5.64
2019-02-17T07:22:04.864Z,5.62
2019-02-17T07:24:36.710Z,5.56
2019-02-17T07:27:08.506Z,5.56
2019-02-17T07:29:40.537Z,5.51
2019-02-17T07:32:12.341Z,5.51
2019-02-17T07:34:44.461Z,5.59
2019-02-17T07:37:16.422Z,5.48
2019-02-17T07:39:48.278Z,5.30
2019-02-17T07:42:20.097Z,5.37
2019-02-17T07:44:51.939Z,5.21
2019-02-17T07:47:23.793Z,5.18
2019-02-17T07:49:55.655Z,5.22
2019-02-17T07:52:27.510Z,5.32
2019-02-17T07:54:59.339Z,5.46
2019-02-17T07:57:31.605Z,5.58
2019-02-17T08:00:03.488Z,5.71
2019-02-17T08:02:35.340Z,5.82
2019-02-17T08:05:07.232Z,5.94
2019-02-17T08:07:39.409Z,6.08
2019-02-17T08:10:11.375Z,6.20
2019-02-17T08:12:43.212Z,6.32
2019-02-17T08:15:15.056Z,6.40
2019-02-17T08:17:47.260Z,6.53
2019-02-17T08:20:19.062Z,6.69
2019-02-17T08:22:52.619Z,6.88
2019-02-17T08:25:24.506Z,7.10
2019-02-17T08:27:56.432Z,7.30
2019-02-17T08:30:28.321Z,7.41
2019-02-17T08:33:02.442Z,7.72
2019-02-17T08:35:34.232Z,7.80
2019-02-17T08:38:06.063Z,7.96
2019-02-17T08:40:38.340Z,8.10
2019-02-17T08:43:10.142Z,8.30
2019-02-17T08:45:41.961Z,8.50
2019-02-17T08:48:13.756Z,8.90
2019-02-17T08:50:46.292Z,9.17
2019-02-17T08:53:18.824Z,9.36
2019-02-17T08:55:50.666Z,9.48
2019-02-17T08:58:22.497Z,9.90
2019-02-17T09:00:54.492Z,10.53
2019-02-17T09:03:26.416Z,10.80
2019-02-17T09:05:58.217Z,11.12
2019-02-17T09:08:30.038Z,12.22
2019-02-17T09:11:01.940Z,14.29
2019-02-17T09:13:35.455Z,15.80
2019-02-17T09:16:08.938Z,17.36
2019-02-17T09:18:40.944Z,17.71
2019-02-17T09:21:24.245Z,19.55
2019-02-17T09:23:56.774Z,18.41
2019-02-17T09:26:43.964Z,18.17
2019-02-17T09:29:18.524Z,17.74
2019-02-17T09:31:54.003Z,17.96
2019-02-17T09:34:47.001Z,17.51
2019-02-17T09:37:25.100Z,17.42
2019-02-17T09:39:57.993Z,17.16
2019-02-17T09:42:29.959Z,16.74
2019-02-17T09:45:01.769Z,16.49
2019-02-17T09:47:33.609Z,16.51
2019-02-17T09:50:06.278Z,16.27
2019-02-17T09:52:38.208Z,16.72
2019-02-17T09:55:10.034Z,16.31
2019-02-17T10:00:22.801Z,18.63
2019-02-17T10:02:54.629Z,18.95
2019-02-17T10:05:26.611Z,20.58
2019-02-17T10:07:58.469Z,21.51
2019-02-17T10:10:32.012Z,21.70
2019-02-17T10:13:04.005Z,21.89
2019-02-17T10:15:35.818Z,22.55
2019-02-17T10:18:07.691Z,21.74
2019-02-17T10:20:39.558Z,21.55
2019-02-17T10:23:11.362Z,21.90
2019-02-17T10:25:43.220Z,21.98
2019-02-17T10:31:15.390Z,22.73
2019-02-17T10:33:47.207Z,24.29
2019-02-17T10:36:20.517Z,23.77
2019-02-17T10:38:52.305Z,24.39
2019-02-17T10:41:26.819Z,23.84
2019-02-17T10:44:07.286Z,23.63
2019-02-17T10:46:45.406Z,23.56
2019-02-17T10:49:26.576Z,22.21
2019-02-17T10:52:08.543Z,23.26
2019-02-17T10:54:41.585Z,23.45
2019-02-17T10:57:13.463Z,24.78
2019-02-17T10:59:45.262Z,24.73
2019-02-17T11:02:17.131Z,24.86
2019-02-17T11:04:50.787Z,25.21
2019-02-17T11:07:24.110Z,23.23
2019-02-17T11:09:57.117Z,24.64
2019-02-17T11:12:32.291Z,24.56
2019-02-17T11:15:04.606Z,25.67
2019-02-17T11:17:37.013Z,26.17
2019-02-17T11:20:09.065Z,27.45
2019-02-17T11:22:41.009Z,28.64
2019-02-17T11:25:13.310Z,28.68
2019-02-17T11:27:45.187Z,31.00
2019-02-17T11:30:17.375Z,31.28
2019-02-17T11:32:57.693Z,30.96
2019-02-17T11:35:24.365Z,30.94
2019-02-17T11:37:56.212Z,31.15
2019-02-17T11:40:28.074Z,30.30
2019-02-17T11:43:01.646Z,30.91
2019-02-17T11:45:33.924Z,31.22
2019-02-17T11:48:05.864Z,32.01
2019-02-17T11:50:39.050Z,32.89
2019-02-17T11:53:11.766Z,30.83
2019-02-17T11:55:43.607Z,30.69
2019-02-17T11:58:15.447Z,31.05
2019-02-17T12:00:47.343Z,30.08
2019-02-17T12:03:19.184Z,29.97
2019-02-17T12:05:52.033Z,29.15
2019-02-17T12:08:25.271Z,29.67
2019-02-17T12:10:57.270Z,29.08
2019-02-17T12:13:29.136Z,27.50
2019-02-17T12:16:00.991Z,27.05
2019-02-17T12:18:34.447Z,26.17
2019-02-17T12:21:15.436Z,26.09
2019-02-17T12:24:08.963Z,26.53
2019-02-17T12:26:49.962Z,26.92
2019-02-17T12:29:32.217Z,25.81
2019-02-17T12:32:04.026Z,25.91
2019-02-17T12:34:35.934Z,25.79
2019-02-17T12:37:07.826Z,26.59
2019-02-17T12:39:39.729Z,25.54
2019-02-17T12:42:15.553Z,24.68
2019-02-17T12:44:47.442Z,24.15
2019-02-17T12:47:19.329Z,24.26
2019-02-17T12:49:51.223Z,24.00
2019-02-17T12:52:24.410Z,23.39
2019-02-17T12:54:57.476Z,23.98
2019-02-17T12:57:29.414Z,24.14
2019-02-17T13:00:01.255Z,25.32
2019-02-17T13:02:33.084Z,24.89
2019-02-17T13:05:05.067Z,24.47
2019-02-17T13:07:37.404Z,23.64
2019-02-17T13:10:10.800Z,24.15
2019-02-17T13:12:42.705Z,22.96
2019-02-17T13:15:16.220Z,21.62
2019-02-17T13:17:48.102Z,20.64
2019-02-17T13:20:19.894Z,20.67
2019-02-17T13:22:51.734Z,20.42
2019-02-17T13:25:23.599Z,20.51
2019-02-17T13:27:55.923Z,20.23
2019-02-17T13:30:28.277Z,20.03
2019-02-17T13:33:00.140Z,19.64
2019-02-17T13:35:32.274Z,19.43
2019-02-17T13:38:04.261Z,19.22
2019-02-17T13:40:36.139Z,19.09
2019-02-17T13:43:07.995Z,19.12
2019-02-17T13:45:39.806Z,19.45
2019-02-17T13:48:11.653Z,19.77
2019-02-17T13:50:45.115Z,19.55
2019-02-17T13:53:17.070Z,19.52
2019-02-17T13:55:49.339Z,19.54
2019-02-17T13:58:21.195Z,19.81
2019-02-17T14:00:53.371Z,20.28
2019-02-17T14:03:26.548Z,20.38
2019-02-17T14:05:58.378Z,20.74
2019-02-17T14:08:31.353Z,20.79
2019-02-17T14:11:03.624Z,20.32
2019-02-17T14:13:35.546Z,20.20
2019-02-17T14:16:09.076Z,19.96
2019-02-17T14:18:40.901Z,19.41
2019-02-17T14:21:12.806Z,19.04
2019-02-17T14:23:44.635Z,19.37
2019-02-17T14:26:16.958Z,19.39
2019-02-17T14:28:48.799Z,19.22
2019-02-17T14:31:20.676Z,19.23
2019-02-17T14:33:58.502Z,19.23
2019-02-17T14:36:27.143Z,19.21
2019-02-17T14:38:59.157Z,19.19
2019-02-17T14:41:31.384Z,19.42
2019-02-17T14:44:03.260Z,19.37
2019-02-17T14:46:35.099Z,19.44
2019-02-17T14:49:08.039Z,19.31
2019-02-17T14:51:39.906Z,19.22
2019-02-17T14:54:13.704Z,19.12
2019-02-17T14:56:45.556Z,18.65
2019-02-17T14:59:17.834Z,18.25
2019-02-17T15:01:51.289Z,18.11
2019-02-17T15:04:23.148Z,18.06
2019-02-17T15:06:55.039Z,18.31
2019-02-17T15:09:27.043Z,18.44
2019-02-17T15:11:58.880Z,18.43
2019-02-17T15:14:31.496Z,18.42
2019-02-17T15:17:03.317Z,18.09
2019-02-17T15:19:35.118Z,18.11
2019-02-17T15:22:07.085Z,18.14
2019-02-17T15:24:40.599Z,18.11
2019-02-17T15:27:14.431Z,18.31
2019-02-17T15:29:48.231Z,18.16
2019-02-17T15:32:20.143Z,18.08
2019-02-17T15:34:52.003Z,18.23
2019-02-17T15:37:23.935Z,18.38
2019-02-17T15:39:55.838Z,18.11
2019-02-17T15:42:30.346Z,17.94
2019-02-17T15:45:02.230Z,17.84
2019-02-17T15:47:37.631Z,17.69
2019-02-17T15:50:10.006Z,17.49
2019-02-17T15:52:44.873Z,17.18
2019-02-17T15:55:17.042Z,17.46
2019-02-17T15:57:50.138Z,17.30
2019-02-17T16:00:21.976Z,17.23
2019-02-17T16:02:53.823Z,17.10
2019-02-17T16:05:25.629Z,17.12
2019-02-17T16:07:57.481Z,17.02
2019-02-17T16:10:32.982Z,16.78
2019-02-17T16:13:06.178Z,16.92
2019-02-17T16:15:38.029Z,16.59
2019-02-17T16:18:10.028Z,16.59
2019-02-17T16:20:42.543Z,16.77
2019-02-17T16:23:14.368Z,16.56
2019-02-17T16:25:47.589Z,16.42
2019-02-17T16:28:19.431Z,16.43
2019-02-17T16:30:53.002Z,16.47
2019-02-17T16:33:38.551Z,16.38
2019-02-17T16:37:01.544Z,16.35
2019-02-17T16:43:05.134Z,16.03
2019-02-17T16:45:37.024Z,16.27
2019-02-17T16:48:08.976Z,16.14
2019-02-17T16:50:43.666Z,16.08
2019-02-17T16:53:15.648Z,16.20
2019-02-17T16:55:47.578Z,16.25
2019-02-17T16:58:19.879Z,16.01
2019-02-17T17:00:51.840Z,15.95
2019-02-17T17:03:25.662Z,15.95
2019-02-17T17:05:58.099Z,15.68
2019-02-17T17:08:34.447Z,15.71
2019-02-17T17:11:07.339Z,15.59
2019-02-17T17:13:41.321Z,15.49
2019-02-17T17:16:13.192Z,15.47
2019-02-17T17:18:45.092Z,15.49
2019-02-17T17:21:16.994Z,15.48
2019-02-17T17:23:48.860Z,15.43
2019-02-17T17:26:21.231Z,15.31
2019-02-17T17:28:55.772Z,15.32
2019-02-17T17:31:27.942Z,15.31
2019-02-17T17:34:00.269Z,15.18
2019-02-17T17:36:33.569Z,15.01
2019-02-17T17:39:06.870Z,15.07
2019-02-17T17:41:40.199Z,15.03
2019-02-17T17:44:17.398Z,14.93
2019-02-17T17:46:49.349Z,14.75
2019-02-17T17:49:21.343Z,14.73
2019-02-17T17:51:53.213Z,14.70
2019-02-17T17:54:25.238Z,14.59
2019-02-17T17:56:59.740Z,14.57
2019-02-17T17:59:32.283Z,14.40
2019-02-17T18:02:04.882Z,14.32
2019-02-17T18:04:36.827Z,14.25
2019-02-17T18:07:08.797Z,14.19
2019-02-17T18:09:43.216Z,14.11
2019-02-17T18:12:15.921Z,14.05
2019-02-17T18:14:48.370Z,14.03
2019-02-17T18:18:51.728Z,14.07
2019-02-17T18:24:52.984Z,13.99
2019-02-17T18:27:26.025Z,13.96
2019-02-17T18:29:58.827Z,13.91
2019-02-17T18:32:30.849Z,13.86
2019-02-17T18:35:05.703Z,13.94
2019-02-17T18:37:41.489Z,13.94
2019-02-17T18:40:13.552Z,13.92
2019-02-17T18:42:48.139Z,13.86
2019-02-17T18:45:20.377Z,13.84
2019-02-17T18:47:53.315Z,13.73
2019-02-17T18:50:25.836Z,13.77
2019-02-17T18:52:57.822Z,13.66
2019-02-17T18:55:30.179Z,13.61
2019-02-17T18:58:02.155Z,13.60
2019-02-17T19:00:38.016Z,13.57
2019-02-17T19:03:10.412Z,13.52
2019-02-17T19:05:42.448Z,13.50
2019-02-17T19:08:14.737Z,13.48
2019-02-17T19:10:46.597Z,13.48
2019-02-17T19:13:19.179Z,13.50
2019-02-17T19:15:53.631Z,13.52
2019-02-17T19:18:28.979Z,13.46
2019-02-17T19:21:02.558Z,13.43
2019-02-17T19:23:34.541Z,13.54
2019-02-17T19:26:06.826Z,13.66
2019-02-17T19:28:39.967Z,13.64
2019-02-17T19:31:12.014Z,13.54
2019-02-17T19:33:44.306Z,13.50
2019-02-17T19:36:16.287Z,13.41
2019-02-17T19:38:50.865Z,13.35
2019-02-17T19:41:25.845Z,13.39
2019-02-17T19:43:58.232Z,13.35
2019-02-17T19:46:31.315Z,13.37
2019-02-17T19:49:13.653Z,13.41
2019-02-17T19:51:49.716Z,13.44
2019-02-17T19:54:23.434Z,13.47
2019-02-17T19:56:56.929Z,13.41
2019-02-17T19:59:28.920Z,13.38
2019-02-17T20:02:01.800Z,13.33
2019-02-17T20:04:43.081Z,13.40
2019-02-17T20:07:18.241Z,13.39
2019-02-17T20:09:50.302Z,13.39
2019-02-17T20:12:25.060Z,13.31
2019-02-17T20:14:57.233Z,13.28
2019-02-17T20:17:30.286Z,13.18
2019-02-17T20:20:02.719Z,13.07
2019-02-17T20:22:36.075Z,12.97
2019-02-17T20:25:09.357Z,12.95
2019-02-17T20:27:43.563Z,12.95
2019-02-17T20:30:17.820Z,12.96
2019-02-17T20:32:52.232Z,12.94
2019-02-17T20:35:24.193Z,12.87
2019-02-17T20:37:58.479Z,12.92
2019-02-17T20:40:33.840Z,12.76
2019-02-17T20:43:06.293Z,12.71
2019-02-17T20:45:43.726Z,12.76
2019-02-17T20:48:17.251Z,12.59
2019-02-17T20:50:51.185Z,12.49
2019-02-17T20:53:23.125Z,12.49
2019-02-17T20:55:56.775Z,12.48
2019-02-17T20:58:30.533Z,12.39
2019-02-17T21:01:04.366Z,12.34
2019-02-17T21:03:39.008Z,12.33
2019-02-17T21:06:13.022Z,12.29
2019-02-17T21:08:45.061Z,12.31
2019-02-17T21:11:17.154Z,12.17
2019-02-17T21:13:49.422Z,12.06
2019-02-17T21:16:29.701Z,12.10
2019-02-17T21:19:03.835Z,11.98
2019-02-17T21:21:35.831Z,12.03
2019-02-17T21:24:10.374Z,12.04
2019-02-17T21:26:42.385Z,12.11
2019-02-17T21:29:15.427Z,12.15
2019-02-17T21:31:47.449Z,12.17
2019-02-17T21:34:19.455Z,12.21
2019-02-17T21:36:53.211Z,12.19
2019-02-17T21:39:29.881Z,12.17
2019-02-17T21:42:02.153Z,12.09
2019-02-17T21:44:34.226Z,11.93
2019-02-17T21:47:07.963Z,11.92
2019-02-17T21:49:40.362Z,11.89
2019-02-17T21:52:12.768Z,11.78
2019-02-17T21:54:45.100Z,11.79
2019-02-17T21:57:19.295Z,11.87
2019-02-17T21:59:52.368Z,11.79
2019-02-17T22:02:27.041Z,11.79
2019-02-17T22:05:03.396Z,11.83
2019-02-17T22:07:35.472Z,11.90
2019-02-17T22:10:09.775Z,11.90
2019-02-17T22:12:41.743Z,11.90
2019-02-17T22:15:15.265Z,11.92
2019-02-17T22:17:47.620Z,11.80
2019-02-17T22:20:19.553Z,11.71
2019-02-17T22:22:51.516Z,11.71
2019-02-17T22:25:23.495Z,11.74
2019-02-17T22:27:56.254Z,11.71
2019-02-17T22:30:28.307Z,11.80
2019-02-17T22:33:02.348Z,11.79
2019-02-17T22:35:47.886Z,11.74
2019-02-17T22:38:19.904Z,11.78
2019-02-17T22:40:51.843Z,11.75
2019-02-17T22:43:23.747Z,11.77
2019-02-17T22:45:55.743Z,11.76
2019-02-17T22:48:27.636Z,11.80
2019-02-17T22:50:59.657Z,11.73
2019-02-17T22:53:31.601Z,11.59
2019-02-17T22:56:04.637Z,11.45
2019-02-17T22:58:36.512Z,11.36
2019-02-17T23:01:11.091Z,11.36
2019-02-17T23:03:43.780Z,11.30
2019-02-17T23:06:16.794Z,11.32
2019-02-17T23:08:48.833Z,11.32
2019-02-17T23:11:20.975Z,11.31
2019-02-17T23:13:53.992Z,11.26
2019-02-17T23:16:25.988Z,11.41
2019-02-17T23:18:57.877Z,11.42
2019-02-17T23:21:29.816Z,11.41
2019-02-17T23:24:02.131Z,11.39
2019-02-17T23:26:34.030Z,11.38
2019-02-17T23:29:06.112Z,11.44
2019-02-17T23:31:39.095Z,11.35
2019-02-17T23:34:11.205Z,11.36
2019-02-17T23:36:44.898Z,11.39
2019-02-17T23:39:17.733Z,11.40
2019-02-17T23:41:49.594Z,11.32
2019-02-17T23:44:21.514Z,11.40
2019-02-17T23:46:53.410Z,11.36
2019-02-17T23:49:25.299Z,11.44
2019-02-17T23:51:57.803Z,11.44
2019-02-17T23:54:29.716Z,11.33
2019-02-17T23:57:01.719Z,11.53
2019-02-17T23:59:33.583Z,11.41
